Time;durP1;ratioP1;P1;durP2;ratioP2;P2;SDS_P1;SDS_P2;PMS_P1;PMS_P2;Temp;Humidity;BMP_temperature;BMP_pressure;BME280_temperature;BME280_humidity;BME280_pressure;Samples;Min_cycle;Max_cycle;Signal;HPM_P1;HPM_P2
2022/11/19 00:00:36;;;;;;;;;;;4.30;99.90;;;;;;5095668;28;19999;-76
2022/11/19 00:03:02;;;;;;;;;;;4.30;99.90;;;;;;5094858;28;19912;-76
2022/11/19 00:05:28;;;;;;;;;;;4.30;99.90;;;;;;5095407;28;20284;-76
2022/11/19 00:07:53;;;;;;;;;;;4.30;99.90;;;;;;5095755;28;19950;-76
2022/11/19 00:10:19;;;;;;;;;;;4.20;99.90;;;;;;5094845;28;20520;-76
2022/11/19 00:12:53;;;;;;;;;;;4.20;99.90;;;;;;5095731;28;20002;-76
2022/11/19 00:15:19;;;;;;;;;;;4.20;99.90;;;;;;5095125;28;20505;-76
2022/11/19 00:17:45;;;;;;;;;;;4.10;99.90;;;;;;5077271;28;19991;-76
2022/11/19 00:20:11;;;;;;;;;;;4.10;99.90;;;;;;5095209;28;19974;-76
2022/11/19 00:22:36;;;;;;;;;;;4.10;99.90;;;;;;5095871;28;19916;-77
2022/11/19 00:25:02;;;;;;;;;;;4.10;99.90;;;;;;5094898;28;19908;-74
2022/11/19 00:27:29;;;;;;;;;;;4.10;99.90;;;;;;5095509;28;20258;-78
2022/11/19 00:29:54;;;;;;;;;;;4.00;99.90;;;;;;5095126;28;19974;-75
2022/11/19 00:32:20;;;;;;;;;;;3.90;99.90;;;;;;5094844;28;19916;-75
2022/11/19 00:34:46;;;;;;;;;;;3.90;99.90;;;;;;5076964;28;19958;-75
2022/11/19 00:37:11;;;;;;;;;;;3.90;99.90;;;;;;5076672;28;19916;-75
2022/11/19 00:39:37;;;;;;;;;;;3.90;99.90;;;;;;5095284;28;19909;-75
2022/11/19 00:42:02;;;;;;;;;;;3.90;99.90;;;;;;5094987;28;20269;-75
2022/11/19 00:44:28;;;;;;;;;;;3.90;99.90;;;;;;5095403;28;19912;-74
2022/11/19 00:46:54;;;;;;;;;;;3.80;99.90;;;;;;5095115;28;20433;-74
2022/11/19 00:49:19;;;;;;;;;;;3.80;99.90;;;;;;5094387;28;19909;-74
2022/11/19 00:51:45;;;;;;;;;;;3.80;99.90;;;;;;5095232;28;19919;-74
2022/11/19 00:54:11;;;;;;;;;;;3.80;99.90;;;;;;5094447;28;19920;-74
2022/11/19 00:56:36;;;;;;;;;;;3.80;99.90;;;;;;5094995;28;19908;-74
2022/11/19 00:59:02;;;;;;;;;;;3.80;99.90;;;;;;5094759;28;19914;-73
2022/11/19 01:01:28;;;;;;;;;;;3.80;99.90;;;;;;5094748;28;19952;-75
2022/11/19 01:03:54;;;;;;;;;;;3.80;99.90;;;;;;5094836;28;19919;-75
2022/11/19 01:06:20;;;;;;;;;;;3.80;99.90;;;;;;5094875;28;19940;-75
2022/11/19 01:08:47;;;;;;;;;;;3.80;99.90;;;;;;5095180;28;19999;-75
2022/11/19 01:11:17;;;;;;;;;;;3.80;99.90;;;;;;5076286;28;19923;-75
2022/11/19 01:13:43;;;;;;;;;;;3.80;99.90;;;;;;5094443;28;19908;-75
2022/11/19 01:16:13;;;;;;;;;;;3.80;99.90;;;;;;5093686;28;19931;-75
2022/11/19 01:18:39;;;;;;;;;;;3.80;99.90;;;;;;5095076;28;19961;-76
2022/11/19 01:21:06;;;;;;;;;;;3.70;99.90;;;;;;5094781;28;19908;-74
2022/11/19 01:23:32;;;;;;;;;;;3.70;99.90;;;;;;5094620;28;19908;-76
2022/11/19 01:25:58;;;;;;;;;;;3.70;99.90;;;;;;5094434;28;20361;-75
2022/11/19 01:28:24;;;;;;;;;;;3.70;99.90;;;;;;5094119;28;19908;-76
2022/11/19 01:30:50;;;;;;;;;;;3.70;99.90;;;;;;5094648;28;19920;-75
2022/11/19 01:33:15;;;;;;;;;;;3.60;99.90;;;;;;5094378;28;19948;-75
2022/11/19 01:35:41;;;;;;;;;;;3.70;99.90;;;;;;5094453;28;19912;-76
2022/11/19 01:38:07;;;;;;;;;;;3.60;99.90;;;;;;5093895;28;20287;-75
2022/11/19 01:40:32;;;;;;;;;;;3.60;99.90;;;;;;5094279;28;19908;-75
2022/11/19 01:42:58;;;;;;;;;;;3.50;99.90;;;;;;5094233;28;19909;-76
2022/11/19 01:45:30;;;;;;;;;;;3.60;99.90;;;;;;5093944;28;19999;-75
2022/11/19 01:48:14;;;;;;;;;;;3.60;99.90;;;;;;5094230;28;19911;-75
2022/11/19 01:50:59;;;;;;;;;;;3.50;99.90;;;;;;5094002;28;20254;-75
2022/11/19 01:53:28;;;;;;;;;;;3.50;99.90;;;;;;5092790;28;20007;-75
2022/11/19 01:55:53;;;;;;;;;;;3.50;99.90;;;;;;5094063;28;19951;-75
2022/11/19 01:58:20;;;;;;;;;;;3.50;99.90;;;;;;5093270;28;20361;-75
2022/11/19 02:00:46;;;;;;;;;;;3.40;99.90;;;;;;5093976;28;19915;-75
2022/11/19 02:03:12;;;;;;;;;;;3.40;99.90;;;;;;5093324;28;19908;-74
2022/11/19 02:05:40;;;;;;;;;;;3.30;99.90;;;;;;5093689;28;19908;-75
2022/11/19 02:08:07;;;;;;;;;;;3.40;99.90;;;;;;5093697;28;19948;-75
2022/11/19 02:10:41;;;;;;;;;;;3.30;99.90;;;;;;5093825;28;20384;-75
2022/11/19 02:13:25;;;;;;;;;;;3.20;99.90;;;;;;5093934;28;20349;-75
2022/11/19 02:15:58;;;;;;;;;;;3.20;99.90;;;;;;5093736;28;20264;-75
2022/11/19 02:18:26;;;;;;;;;;;3.20;99.90;;;;;;5093334;28;19912;-75
2022/11/19 02:21:00;;;;;;;;;;;3.10;99.90;;;;;;5093389;28;19914;-75
2022/11/19 02:23:49;;;;;;;;;;;3.00;99.90;;;;;;5093060;28;19916;-76
2022/11/19 02:26:39;;;;;;;;;;;3.00;99.90;;;;;;5093098;28;19912;-75
2022/11/19 02:29:10;;;;;;;;;;;3.00;99.90;;;;;;5093518;28;19908;-76
2022/11/19 02:31:45;;;;;;;;;;;2.90;99.90;;;;;;5093384;28;19916;-75
2022/11/19 02:34:17;;;;;;;;;;;2.90;99.90;;;;;;5092852;28;20019;-74
2022/11/19 02:36:45;;;;;;;;;;;2.80;99.90;;;;;;5093412;28;19915;-75
2022/11/19 02:39:13;;;;;;;;;;;2.80;99.90;;;;;;5093421;28;19912;-74
2022/11/19 02:41:57;;;;;;;;;;;2.80;99.90;;;;;;5093148;28;19995;-76
2022/11/19 02:47:17;;;;;;;;;;;2.60;99.90;;;;;;5092959;28;19915;-75
2022/11/19 02:49:44;;;;;;;;;;;2.60;99.90;;;;;;5093409;28;20365;-75
2022/11/19 02:52:10;;;;;;;;;;;2.60;99.90;;;;;;5093178;28;19922;-75
2022/11/19 02:54:36;;;;;;;;;;;2.50;99.90;;;;;;5074604;28;19924;-75
2022/11/19 02:57:02;;;;;;;;;;;2.50;99.90;;;;;;5093344;28;19908;-75
2022/11/19 03:05:14;;;;;;;;;;;2.50;99.90;;;;;;5093234;28;19962;-74
2022/11/19 03:07:40;;;;;;;;;;;2.50;99.90;;;;;;5092888;28;19915;-75
2022/11/19 03:10:09;;;;;;;;;;;2.40;99.90;;;;;;5108968;28;19908;-76
2022/11/19 03:12:44;;;;;;;;;;;2.40;99.90;;;;;;5092511;28;19916;-74
2022/11/19 03:18:25;;;;;;;;;;;2.40;99.90;;;;;;5063621;28;19977;-76
2022/11/19 03:20:55;;;;;;;;;;;2.40;99.90;;;;;;5092556;28;19914;-76
2022/11/19 03:23:23;;;;;;;;;;;2.40;99.90;;;;;;5092424;28;20365;-76
2022/11/19 03:26:18;;;;;;;;;;;2.40;99.90;;;;;;5092467;28;19908;-76
2022/11/19 03:28:45;;;;;;;;;;;2.40;99.90;;;;;;5083078;28;19912;-76
2022/11/19 03:31:11;;;;;;;;;;;2.40;99.90;;;;;;5093121;28;19916;-75
2022/11/19 03:33:41;;;;;;;;;;;2.40;99.90;;;;;;5092436;28;19958;-75
2022/11/19 03:36:09;;;;;;;;;;;2.30;99.90;;;;;;5092681;28;19908;-75
2022/11/19 03:38:40;;;;;;;;;;;2.30;99.90;;;;;;5092992;28;19904;-75
2022/11/19 03:41:06;;;;;;;;;;;2.30;99.90;;;;;;5096719;28;19908;-75
2022/11/19 03:43:35;;;;;;;;;;;2.30;99.90;;;;;;5077951;28;20069;-75
2022/11/19 03:46:02;;;;;;;;;;;2.20;99.90;;;;;;5096526;28;19916;-75
2022/11/19 03:48:28;;;;;;;;;;;2.20;99.90;;;;;;5095914;28;19908;-75
2022/11/19 03:51:02;;;;;;;;;;;2.20;99.90;;;;;;5096497;28;19920;-76
2022/11/19 03:53:27;;;;;;;;;;;2.20;99.90;;;;;;5095731;28;19974;-75
2022/11/19 03:55:53;;;;;;;;;;;2.20;99.90;;;;;;5096264;28;19955;-75
2022/11/19 03:58:22;;;;;;;;;;;2.20;99.90;;;;;;5095717;28;19977;-75
2022/11/19 04:00:48;;;;;;;;;;;2.20;99.90;;;;;;5095873;28;19912;-75
2022/11/19 04:03:13;;;;;;;;;;;2.10;99.90;;;;;;5078241;28;19931;-75
2022/11/19 04:05:39;;;;;;;;;;;2.20;99.90;;;;;;5095625;28;20016;-75
2022/11/19 04:08:04;;;;;;;;;;;2.20;99.90;;;;;;5096193;28;20014;-75
2022/11/19 04:10:30;;;;;;;;;;;2.10;99.90;;;;;;5077352;28;19930;-74
2022/11/19 04:12:55;;;;;;;;;;;2.10;99.90;;;;;;5096081;28;19916;-75
2022/11/19 04:15:21;;;;;;;;;;;2.10;99.90;;;;;;5095362;28;20349;-74
2022/11/19 04:17:46;;;;;;;;;;;2.10;99.90;;;;;;5095975;28;20280;-75
2022/11/19 04:20:12;;;;;;;;;;;2.10;99.90;;;;;;5095581;28;19993;-75
2022/11/19 04:22:38;;;;;;;;;;;2.10;99.90;;;;;;5111232;28;19904;-75
2022/11/19 04:25:03;;;;;;;;;;;2.10;99.90;;;;;;5095908;28;19912;-75
2022/11/19 04:27:29;;;;;;;;;;;2.00;99.90;;;;;;5095363;28;20254;-74
2022/11/19 04:29:55;;;;;;;;;;;2.00;99.90;;;;;;5095265;28;19908;-74
2022/11/19 04:32:20;;;;;;;;;;;2.00;99.90;;;;;;5095220;28;20273;-74
2022/11/19 04:34:46;;;;;;;;;;;2.00;99.90;;;;;;5095676;28;19962;-75
2022/11/19 04:37:11;;;;;;;;;;;2.00;99.90;;;;;;5095690;28;19915;-75
2022/11/19 04:39:37;;;;;;;;;;;1.90;99.90;;;;;;5095131;28;20338;-75
2022/11/19 04:42:02;;;;;;;;;;;1.90;99.90;;;;;;5095849;28;20345;-76
2022/11/19 04:44:28;;;;;;;;;;;2.00;99.90;;;;;;5094712;28;20008;-75
2022/11/19 04:46:54;;;;;;;;;;;2.00;99.90;;;;;;5095237;28;20365;-76
2022/11/19 04:49:19;;;;;;;;;;;2.00;99.90;;;;;;5094991;28;19912;-74
2022/11/19 04:51:45;;;;;;;;;;;2.00;99.90;;;;;;5076011;28;19917;-75
2022/11/19 04:54:11;;;;;;;;;;;2.00;99.90;;;;;;5095267;28;19927;-75
2022/11/19 04:56:37;;;;;;;;;;;2.00;99.90;;;;;;5094625;28;20382;-75
2022/11/19 04:59:03;;;;;;;;;;;1.90;99.90;;;;;;5095110;28;19974;-75
2022/11/19 05:01:28;;;;;;;;;;;1.90;99.90;;;;;;5094538;28;19909;-75
2022/11/19 05:03:54;;;;;;;;;;;1.90;99.90;;;;;;5095063;28;20482;-75
2022/11/19 05:06:20;;;;;;;;;;;1.80;99.90;;;;;;5094831;28;19915;-75
2022/11/19 05:08:45;;;;;;;;;;;1.80;99.90;;;;;;5095094;28;19909;-75
2022/11/19 05:11:11;;;;;;;;;;;1.80;99.90;;;;;;5094795;28;20003;-75
2022/11/19 05:13:36;;;;;;;;;;;1.70;99.90;;;;;;5094204;28;20323;-75
2022/11/19 05:16:02;;;;;;;;;;;1.80;99.90;;;;;;5094879;28;19911;-75
2022/11/19 05:18:30;;;;;;;;;;;1.80;99.90;;;;;;5093174;28;20452;-75
2022/11/19 05:20:55;;;;;;;;;;;1.80;99.90;;;;;;5094558;28;19908;-75
2022/11/19 05:23:21;;;;;;;;;;;1.80;99.90;;;;;;5094674;28;19966;-74
2022/11/19 05:25:46;;;;;;;;;;;1.70;99.90;;;;;;5094181;28;20365;-76
2022/11/19 05:28:12;;;;;;;;;;;1.70;99.90;;;;;;5094380;28;19999;-74
2022/11/19 05:30:38;;;;;;;;;;;1.70;99.90;;;;;;5075658;28;19908;-74
2022/11/19 05:33:03;;;;;;;;;;;1.70;99.90;;;;;;5076423;28;19923;-74
2022/11/19 05:35:29;;;;;;;;;;;1.60;99.90;;;;;;5093616;28;20338;-75
2022/11/19 05:37:54;;;;;;;;;;;1.60;99.90;;;;;;5076483;28;20284;-75
2022/11/19 05:40:20;;;;;;;;;;;1.60;99.90;;;;;;5094253;28;19916;-74
2022/11/19 05:42:45;;;;;;;;;;;1.60;99.90;;;;;;5093752;28;19994;-75
2022/11/19 05:45:11;;;;;;;;;;;1.70;99.90;;;;;;5094488;28;19915;-76
2022/11/19 05:47:37;;;;;;;;;;;1.70;99.90;;;;;;5093771;28;19968;-75
2022/11/19 05:50:03;;;;;;;;;;;1.70;99.90;;;;;;5094100;28;19932;-76
2022/11/19 05:52:28;;;;;;;;;;;1.70;99.90;;;;;;5093694;28;19916;-75
2022/11/19 05:54:54;;;;;;;;;;;1.70;99.90;;;;;;5094419;28;19981;-75
2022/11/19 05:57:19;;;;;;;;;;;1.60;99.90;;;;;;5093918;28;19919;-76
2022/11/19 05:59:45;;;;;;;;;;;1.50;99.90;;;;;;5093642;28;19915;-76
2022/11/19 06:02:11;;;;;;;;;;;1.50;99.90;;;;;;5093440;28;20349;-76
2022/11/19 06:04:36;;;;;;;;;;;1.60;99.90;;;;;;5093465;28;19908;-77
2022/11/19 06:07:02;;;;;;;;;;;1.60;99.90;;;;;;5093798;28;19908;-76
2022/11/19 06:09:28;;;;;;;;;;;1.60;99.90;;;;;;5093262;28;19912;-76
2022/11/19 06:11:53;;;;;;;;;;;1.60;99.90;;;;;;5075507;28;20007;-76
2022/11/19 06:14:23;;;;;;;;;;;1.60;99.90;;;;;;5093641;28;19915;-76
2022/11/19 06:16:50;;;;;;;;;;;1.60;99.90;;;;;;5093373;28;19963;-76
2022/11/19 06:19:16;;;;;;;;;;;1.50;99.90;;;;;;5093599;28;19941;-76
2022/11/19 06:21:41;;;;;;;;;;;1.60;99.90;;;;;;5093134;28;19962;-75
2022/11/19 06:24:07;;;;;;;;;;;1.60;99.90;;;;;;5093636;28;19915;-75
2022/11/19 06:26:32;;;;;;;;;;;1.50;99.90;;;;;;5093024;28;19947;-75
2022/11/19 06:28:58;;;;;;;;;;;1.50;99.90;;;;;;5093598;28;20386;-75
2022/11/19 06:31:24;;;;;;;;;;;1.50;99.90;;;;;;5093057;28;19927;-75
2022/11/19 06:33:49;;;;;;;;;;;1.40;99.90;;;;;;5092863;28;19990;-75
2022/11/19 06:36:15;;;;;;;;;;;1.40;99.90;;;;;;5109102;28;19908;-75
2022/11/19 06:38:41;;;;;;;;;;;1.40;99.90;;;;;;5092668;28;19916;-75
2022/11/19 06:41:06;;;;;;;;;;;1.40;99.90;;;;;;5075340;28;19908;-75
2022/11/19 06:43:32;;;;;;;;;;;1.30;99.90;;;;;;5093026;28;19908;-75
2022/11/19 06:45:57;;;;;;;;;;;1.30;99.90;;;;;;5093717;28;20349;-75
2022/11/19 06:48:23;;;;;;;;;;;1.30;99.90;;;;;;5093204;28;19912;-76
2022/11/19 06:50:48;;;;;;;;;;;1.30;99.90;;;;;;5092408;28;19911;-76
2022/11/19 06:53:14;;;;;;;;;;;1.40;99.90;;;;;;5093106;28;19920;-76
2022/11/19 06:55:40;;;;;;;;;;;1.40;99.90;;;;;;5092776;28;20380;-76
2022/11/19 06:58:06;;;;;;;;;;;1.40;99.90;;;;;;5093229;28;19939;-76
2022/11/19 07:00:32;;;;;;;;;;;1.40;99.90;;;;;;5092810;28;19968;-75
2022/11/19 07:02:58;;;;;;;;;;;1.30;99.90;;;;;;5092928;28;19908;-75
2022/11/19 07:05:23;;;;;;;;;;;1.40;99.90;;;;;;5092744;28;19957;-75
2022/11/19 07:07:49;;;;;;;;;;;1.40;99.90;;;;;;5092733;28;20628;-75
2022/11/19 07:10:15;;;;;;;;;;;1.40;99.90;;;;;;5093142;28;20034;-76
2022/11/19 07:12:40;;;;;;;;;;;1.40;99.90;;;;;;5092512;28;19978;-75
2022/11/19 07:15:07;;;;;;;;;;;1.30;99.90;;;;;;5096083;28;19947;-75
2022/11/19 07:17:32;;;;;;;;;;;1.30;99.90;;;;;;5096477;28;19908;-75
2022/11/19 07:19:58;;;;;;;;;;;1.40;99.90;;;;;;5096966;28;20238;-75
2022/11/19 07:22:23;;;;;;;;;;;1.20;99.90;;;;;;5097057;28;20426;-76
2022/11/19 07:24:49;;;;;;;;;;;1.20;99.90;;;;;;5096147;28;19912;-75
2022/11/19 07:27:15;;;;;;;;;;;1.20;99.90;;;;;;5097067;28;19908;-75
2022/11/19 07:29:40;;;;;;;;;;;1.20;99.90;;;;;;5096430;28;19912;-75
2022/11/19 07:32:06;;;;;;;;;;;1.20;99.90;;;;;;5096319;28;20025;-75
2022/11/19 07:34:32;;;;;;;;;;;1.20;99.90;;;;;;5096477;28;19909;-75
2022/11/19 07:36:57;;;;;;;;;;;1.20;99.90;;;;;;5096704;28;20273;-75
2022/11/19 07:39:23;;;;;;;;;;;1.10;99.90;;;;;;5097069;28;20270;-76
2022/11/19 07:44:32;;;;;;;;;;;1.10;99.90;;;;;;5096122;28;19999;-75
2022/11/19 07:46:58;;;;;;;;;;;1.10;99.90;;;;;;5096601;28;20368;-75
2022/11/19 07:49:25;;;;;;;;;;;1.10;99.90;;;;;;5096276;28;19965;-75
2022/11/19 07:51:50;;;;;;;;;;;1.10;99.90;;;;;;5096025;28;19961;-75
2022/11/19 07:54:16;;;;;;;;;;;1.10;99.90;;;;;;5096161;28;19946;-76
2022/11/19 07:56:42;;;;;;;;;;;1.00;99.90;;;;;;5095980;28;20388;-75
2022/11/19 07:59:07;;;;;;;;;;;1.00;99.90;;;;;;5096158;28;20289;-75
2022/11/19 08:01:33;;;;;;;;;;;1.00;99.90;;;;;;5096018;28;20479;-75
2022/11/19 08:03:59;;;;;;;;;;;1.00;99.90;;;;;;5095639;28;20284;-76
2022/11/19 08:06:25;;;;;;;;;;;1.00;99.90;;;;;;5095857;28;20376;-75
2022/11/19 08:08:52;;;;;;;;;;;1.00;99.90;;;;;;5095621;28;19939;-75
2022/11/19 08:11:18;;;;;;;;;;;1.10;99.90;;;;;;5095721;28;19916;-75
2022/11/19 08:13:44;;;;;;;;;;;1.10;99.90;;;;;;5095658;28;19912;-75
2022/11/19 08:16:10;;;;;;;;;;;1.10;99.90;;;;;;5095905;28;19915;-75
2022/11/19 08:18:36;;;;;;;;;;;1.20;99.90;;;;;;5095498;28;19908;-74
2022/11/19 08:21:05;;;;;;;;;;;1.30;99.90;;;;;;5095934;28;19916;-75
2022/11/19 08:23:31;;;;;;;;;;;1.40;99.90;;;;;;5095720;28;19915;-75
2022/11/19 08:25:56;;;;;;;;;;;1.40;99.90;;;;;;5095236;28;19922;-75
2022/11/19 08:28:22;;;;;;;;;;;1.40;99.90;;;;;;5095534;28;19961;-75
2022/11/19 08:30:47;;;;;;;;;;;1.50;99.90;;;;;;5095089;28;19908;-75
2022/11/19 08:33:13;;;;;;;;;;;1.60;99.90;;;;;;5095446;28;19918;-75
2022/11/19 08:35:39;;;;;;;;;;;1.80;99.90;;;;;;5095190;28;20265;-75
2022/11/19 08:38:04;;;;;;;;;;;1.90;99.90;;;;;;5095958;28;20238;-76
2022/11/19 08:40:30;;;;;;;;;;;2.00;99.90;;;;;;5095595;28;20003;-76
2022/11/19 08:42:58;;;;;;;;;;;2.00;99.90;;;;;;5094960;28;20509;-75
2022/11/19 08:45:25;;;;;;;;;;;2.00;99.90;;;;;;5095364;28;19919;-76
2022/11/19 08:47:51;;;;;;;;;;;2.00;99.90;;;;;;5094690;28;19908;-75
2022/11/19 08:50:17;;;;;;;;;;;2.10;99.90;;;;;;5095397;28;20402;-75
2022/11/19 08:52:42;;;;;;;;;;;2.20;99.90;;;;;;5094628;28;19969;-75
2022/11/19 08:55:08;;;;;;;;;;;2.30;99.90;;;;;;5095280;28;19946;-76
2022/11/19 08:57:34;;;;;;;;;;;2.30;99.90;;;;;;5095555;28;20429;-75
2022/11/19 08:59:59;;;;;;;;;;;2.40;99.90;;;;;;5094647;28;19908;-75
2022/11/19 09:02:25;;;;;;;;;;;2.40;99.90;;;;;;5095082;28;19915;-76
2022/11/19 09:04:50;;;;;;;;;;;2.40;99.90;;;;;;5094321;28;19909;-75
2022/11/19 09:07:16;;;;;;;;;;;2.40;99.90;;;;;;5095089;28;19908;-76
2022/11/19 09:09:41;;;;;;;;;;;2.40;99.90;;;;;;5094310;28;19908;-76
2022/11/19 09:12:08;;;;;;;;;;;2.40;99.90;;;;;;5094851;28;19942;-76
2022/11/19 09:14:33;;;;;;;;;;;2.40;99.90;;;;;;5094873;28;19920;-73
2022/11/19 09:16:59;;;;;;;;;;;2.40;99.90;;;;;;5093990;28;19965;-76
2022/11/19 09:19:24;;;;;;;;;;;2.50;99.90;;;;;;5094369;28;19908;-75
2022/11/19 09:21:50;;;;;;;;;;;2.50;99.90;;;;;;5094146;28;19908;-76
2022/11/19 09:24:15;;;;;;;;;;;2.60;99.90;;;;;;5110416;28;20006;-75
2022/11/19 09:26:41;;;;;;;;;;;2.60;99.90;;;;;;5094041;28;20002;-76
2022/11/19 09:29:07;;;;;;;;;;;2.70;99.90;;;;;;5094415;28;19915;-75
2022/11/19 09:31:32;;;;;;;;;;;2.70;99.90;;;;;;5094257;28;19916;-75
2022/11/19 09:33:58;;;;;;;;;;;2.80;99.90;;;;;;5093676;28;19908;-75
2022/11/19 09:36:23;;;;;;;;;;;2.90;99.90;;;;;;5093093;28;19950;-75
2022/11/19 09:38:49;;;;;;;;;;;3.00;99.90;;;;;;5093609;28;20355;-75
2022/11/19 09:41:24;;;;;;;;;;;3.10;99.90;;;;;;5075859;28;19912;-75
2022/11/19 09:44:01;;;;;;;;;;;3.20;99.90;;;;;;5094078;28;19908;-75
2022/11/19 09:46:36;;;;;;;;;;;3.20;99.90;;;;;;5093497;28;19916;-75
2022/11/19 09:49:05;;;;;;;;;;;3.30;99.90;;;;;;5093216;28;19934;-75
2022/11/19 09:51:32;;;;;;;;;;;3.30;99.90;;;;;;5093284;28;19916;-75
2022/11/19 09:53:58;;;;;;;;;;;3.30;99.90;;;;;;5093206;28;20242;-75
2022/11/19 09:56:29;;;;;;;;;;;3.40;99.90;;;;;;5093617;28;19937;-75
2022/11/19 09:58:55;;;;;;;;;;;3.40;99.90;;;;;;5108746;28;19908;-75
2022/11/19 10:01:21;;;;;;;;;;;3.50;99.90;;;;;;5094187;28;19915;-75
2022/11/19 10:03:52;;;;;;;;;;;3.50;99.90;;;;;;5075262;28;19908;-75
2022/11/19 10:06:40;;;;;;;;;;;3.50;99.90;;;;;;5093632;28;19908;-75
2022/11/19 10:09:09;;;;;;;;;;;3.50;99.90;;;;;;5087795;28;19908;-76
2022/11/19 10:11:34;;;;;;;;;;;3.60;99.90;;;;;;5093680;28;19916;-74
2022/11/19 10:14:03;;;;;;;;;;;3.70;99.90;;;;;;5093497;28;19915;-74
2022/11/19 10:16:38;;;;;;;;;;;3.70;99.90;;;;;;5093524;28;19911;-74
2022/11/19 10:19:15;;;;;;;;;;;3.80;99.90;;;;;;5093142;28;19908;-74
2022/11/19 10:21:49;;;;;;;;;;;3.90;99.90;;;;;;5093271;28;20281;-75
2022/11/19 10:24:18;;;;;;;;;;;4.00;99.90;;;;;;5093374;28;19995;-74
2022/11/19 10:26:48;;;;;;;;;;;4.00;99.90;;;;;;5092546;28;19913;-73
2022/11/19 10:29:15;;;;;;;;;;;4.10;99.90;;;;;;5093316;28;19951;-74
2022/11/19 10:31:48;;;;;;;;;;;4.20;99.90;;;;;;5093039;28;19916;-74
2022/11/19 10:34:26;;;;;;;;;;;4.30;99.90;;;;;;5093332;28;20182;-74
2022/11/19 10:36:54;;;;;;;;;;;4.30;99.90;;;;;;5092850;28;19908;-73
2022/11/19 10:39:40;;;;;;;;;;;4.40;99.90;;;;;;5093154;28;20006;-74
2022/11/19 10:42:21;;;;;;;;;;;4.40;99.90;;;;;;5092446;28;19953;-74
2022/11/19 10:44:56;;;;;;;;;;;4.50;99.90;;;;;;5092671;28;19995;-74
2022/11/19 10:47:46;;;;;;;;;;;4.80;99.90;;;;;;5092860;28;20364;-74
2022/11/19 10:50:19;;;;;;;;;;;4.90;99.90;;;;;;5074414;28;19916;-74
2022/11/19 10:52:55;;;;;;;;;;;5.10;99.90;;;;;;5092734;28;19916;-73
2022/11/19 10:55:29;;;;;;;;;;;5.20;99.90;;;;;;5093220;28;19920;-74
2022/11/19 10:58:00;;;;;;;;;;;5.40;99.90;;;;;;5092569;28;19912;-75
2022/11/19 11:00:26;;;;;;;;;;;5.50;99.90;;;;;;5093218;28;19912;-75
2022/11/19 11:02:55;;;;;;;;;;;5.60;99.90;;;;;;5092747;28;19920;-74
2022/11/19 11:05:21;;;;;;;;;;;5.80;99.90;;;;;;5093130;28;20299;-74
2022/11/19 11:07:54;;;;;;;;;;;5.90;99.90;;;;;;5092872;28;20057;-74
2022/11/19 11:10:24;;;;;;;;;;;6.00;99.90;;;;;;5093131;28;19908;-75
2022/11/19 11:15:34;;;;;;;;;;;6.30;99.90;;;;;;5093218;28;19961;-75
2022/11/19 11:18:07;;;;;;;;;;;6.40;99.90;;;;;;5092526;28;19998;-75
2022/11/19 11:20:35;;;;;;;;;;;6.50;99.90;;;;;;5093184;28;19908;-75
2022/11/19 11:23:03;;;;;;;;;;;6.60;99.90;;;;;;5092486;28;19909;-74
2022/11/19 11:25:29;;;;;;;;;;;6.70;99.90;;;;;;5092970;28;19908;-75
2022/11/19 11:28:14;;;;;;;;;;;6.80;99.90;;;;;;5092543;28;19908;-74
2022/11/19 11:31:00;;;;;;;;;;;6.90;99.90;;;;;;5093005;28;19908;-75
2022/11/19 11:33:25;;;;;;;;;;;7.00;99.90;;;;;;5093004;28;20381;-75
2022/11/19 11:35:56;;;;;;;;;;;7.10;99.90;;;;;;5074165;28;20004;-75
2022/11/19 11:38:23;;;;;;;;;;;7.20;99.90;;;;;;5092492;28;20378;-75
2022/11/19 11:40:55;;;;;;;;;;;7.30;99.90;;;;;;5074261;28;19915;-74
2022/11/19 11:43:20;;;;;;;;;;;7.40;99.90;;;;;;5074552;28;19962;-75
2022/11/19 11:45:47;;;;;;;;;;;7.40;99.90;;;;;;5092636;28;19912;-75
2022/11/19 11:48:18;;;;;;;;;;;7.40;99.90;;;;;;5092187;28;19913;-74
2022/11/19 11:50:44;;;;;;;;;;;7.50;99.90;;;;;;5092349;28;20003;-75
2022/11/19 11:53:09;;;;;;;;;;;7.50;99.90;;;;;;5091577;28;20600;-75
2022/11/19 11:55:37;;;;;;;;;;;7.60;99.90;;;;;;5091596;28;19912;-75
2022/11/19 11:58:22;;;;;;;;;;;7.60;99.90;;;;;;5091110;28;19943;-75
2022/11/19 12:00:48;;;;;;;;;;;7.70;99.90;;;;;;5093923;28;19908;-74
2022/11/19 12:03:17;;;;;;;;;;;7.80;99.90;;;;;;5094828;28;20341;-75
2022/11/19 12:06:01;;;;;;;;;;;7.90;99.90;;;;;;5094789;28;19908;-75
2022/11/19 12:08:32;;;;;;;;;;;8.00;99.90;;;;;;5094844;28;19908;-76
2022/11/19 12:11:04;;;;;;;;;;;8.00;99.90;;;;;;5093962;28;19915;-75
2022/11/19 12:13:29;;;;;;;;;;;8.00;99.90;;;;;;5095062;28;19919;-76
2022/11/19 12:15:55;;;;;;;;;;;8.10;99.90;;;;;;5094552;28;19908;-76
2022/11/19 12:18:24;;;;;;;;;;;8.10;99.90;;;;;;5094920;28;19962;-75
2022/11/19 12:20:52;;;;;;;;;;;8.20;99.90;;;;;;5094815;28;20273;-76
2022/11/19 12:23:27;;;;;;;;;;;8.30;99.90;;;;;;5076617;28;20276;-75
2022/11/19 12:25:58;;;;;;;;;;;8.30;99.90;;;;;;5094147;28;19908;-74
2022/11/19 12:28:33;;;;;;;;;;;8.30;99.90;;;;;;5094221;28;20369;-75
2022/11/19 12:31:01;;;;;;;;;;;8.30;99.90;;;;;;5093717;28;20353;-74
2022/11/19 12:33:33;;;;;;;;;;;8.30;99.90;;;;;;5093915;28;19919;-75
2022/11/19 12:36:01;;;;;;;;;;;8.30;99.90;;;;;;5093748;28;19908;-74
2022/11/19 12:38:27;;;;;;;;;;;8.40;99.90;;;;;;5094320;28;20053;-75
2022/11/19 12:40:53;;;;;;;;;;;8.30;99.90;;;;;;5093623;28;19908;-74
2022/11/19 12:43:19;;;;;;;;;;;8.30;99.90;;;;;;5094109;28;19908;-74
2022/11/19 12:45:49;;;;;;;;;;;8.30;99.90;;;;;;5094251;28;20253;-76
2022/11/19 12:48:35;;;;;;;;;;;8.30;99.90;;;;;;5093669;28;19915;-75
2022/11/19 12:51:19;;;;;;;;;;;8.30;99.90;;;;;;5093282;28;19908;-75
2022/11/19 12:53:55;;;;;;;;;;;8.30;99.90;;;;;;5028397;28;1858288;-75
2022/11/19 12:56:35;;;;;;;;;;;8.40;99.90;;;;;;5095112;28;20270;-75
2022/11/19 12:59:06;;;;;;;;;;;8.30;99.90;;;;;;5094192;28;20285;-74
2022/11/19 13:01:34;;;;;;;;;;;8.30;99.90;;;;;;5094743;28;19915;-75
2022/11/19 13:04:15;;;;;;;;;;;8.40;99.90;;;;;;5094505;28;19908;-74
2022/11/19 13:06:53;;;;;;;;;;;8.40;99.90;;;;;;5094674;28;19931;-75
2022/11/19 13:09:31;;;;;;;;;;;8.40;99.90;;;;;;5095014;28;19908;-75
2022/11/19 13:12:01;;;;;;;;;;;8.40;99.90;;;;;;5093058;28;19912;-75
2022/11/19 13:14:31;;;;;;;;;;;8.40;99.90;;;;;;5094628;28;20007;-74
2022/11/19 13:16:57;;;;;;;;;;;8.40;99.90;;;;;;5109593;28;20002;-75
2022/11/19 13:19:34;;;;;;;;;;;8.50;99.90;;;;;;5094535;28;19995;-75
2022/11/19 13:22:19;;;;;;;;;;;8.50;99.90;;;;;;5094122;28;19951;-75
2022/11/19 13:24:50;;;;;;;;;;;8.60;99.90;;;;;;5094024;28;19915;-75
2022/11/19 13:27:17;;;;;;;;;;;8.60;99.90;;;;;;5094072;28;20254;-75
2022/11/19 13:29:53;;;;;;;;;;;8.60;99.90;;;;;;5094412;28;19915;-75
2022/11/19 13:32:22;;;;;;;;;;;8.60;99.90;;;;;;5075716;28;19912;-74
2022/11/19 13:35:07;;;;;;;;;;;8.70;99.90;;;;;;5076081;28;20436;-75
2022/11/19 13:37:51;;;;;;;;;;;8.70;99.90;;;;;;5094255;28;20057;-75
2022/11/19 13:40:20;;;;;;;;;;;8.70;99.90;;;;;;5093754;28;19904;-74
2022/11/19 13:45:31;;;;;;;;;;;8.80;99.90;;;;;;5094043;28;19931;-75
2022/11/19 13:47:59;;;;;;;;;;;8.80;99.90;;;;;;5093732;28;20002;-75
2022/11/19 13:50:39;;;;;;;;;;;8.80;99.90;;;;;;5093981;28;19931;-75
2022/11/19 13:53:13;;;;;;;;;;;8.80;99.90;;;;;;5093310;28;20349;-74
2022/11/19 13:55:40;;;;;;;;;;;8.90;99.90;;;;;;5093790;28;19974;-75
2022/11/19 13:58:12;;;;;;;;;;;8.90;99.90;;;;;;5093435;28;19990;-75
2022/11/19 14:00:38;;;;;;;;;;;8.90;99.90;;;;;;5093397;28;19961;-75
2022/11/19 14:03:13;;;;;;;;;;;8.90;99.90;;;;;;5093086;28;19913;-75
2022/11/19 14:05:55;;;;;;;;;;;8.90;99.90;;;;;;5093321;28;19912;-75
2022/11/19 14:08:39;;;;;;;;;;;8.90;99.90;;;;;;5093101;28;19989;-76
2022/11/19 14:11:10;;;;;;;;;;;8.90;99.90;;;;;;5074782;28;19912;-75
2022/11/19 14:13:39;;;;;;;;;;;8.90;99.90;;;;;;5093430;28;19912;-75
2022/11/19 14:27:21;;;;;;;;;;;9.00;99.90;;;;;;5092684;28;19968;-75
2022/11/19 14:29:46;;;;;;;;;;;8.90;99.90;;;;;;5092694;28;19908;-75
2022/11/19 14:32:12;;;;;;;;;;;8.90;99.90;;;;;;5093001;28;20284;-75
2022/11/19 14:34:39;;;;;;;;;;;8.90;99.90;;;;;;5093088;28;20281;-75
2022/11/19 14:37:14;;;;;;;;;;;8.90;99.90;;;;;;5092757;28;19908;-75
2022/11/19 14:39:42;;;;;;;;;;;8.90;99.90;;;;;;5075082;28;20273;-75
2022/11/19 14:42:11;;;;;;;;;;;8.90;99.90;;;;;;5092367;28;20002;-75
2022/11/19 14:44:37;;;;;;;;;;;8.90;99.90;;;;;;5093086;28;19912;-75
2022/11/19 14:47:21;;;;;;;;;;;9.00;99.90;;;;;;5092737;28;19931;-75
2022/11/19 14:49:47;;;;;;;;;;;9.00;99.90;;;;;;5093136;28;19946;-75
2022/11/19 14:52:20;;;;;;;;;;;9.00;99.90;;;;;;5092620;28;19912;-75
2022/11/19 14:54:51;;;;;;;;;;;9.10;99.90;;;;;;5092336;28;19920;-75
2022/11/19 14:57:31;;;;;;;;;;;9.10;99.90;;;;;;5108184;28;19952;-75
2022/11/19 14:59:59;;;;;;;;;;;9.10;99.90;;;;;;5092945;28;19916;-75
2022/11/19 15:02:38;;;;;;;;;;;9.00;99.90;;;;;;5092386;28;19912;-76
2022/11/19 15:05:06;;;;;;;;;;;9.00;99.90;;;;;;5092076;28;20292;-75
2022/11/19 15:07:33;;;;;;;;;;;9.00;99.90;;;;;;5092801;28;19909;-75
2022/11/19 15:10:08;;;;;;;;;;;9.00;99.90;;;;;;5093208;28;19908;-76